Hayward — AEEA — position and weather

sailwx.info

Track history (hours):
 
Tides and Currents Weather Stations Pressure Air Temp Water Temp Dewpoint Dewpoint Depression Visibility Wind Speed Wind Dir Waves Ship Positions

Hayward

Last reported at 2018-May-23 18:54 UTC. Time now 2018-May-23 22:17 UTC.
Position N 40°41' W 074°04'.

Length 37 m; draft 2.7 m.

Type: Cargo ship. MMSI: 366999412.

Date/timePositionNaut miles runAvg speedWind from/ knotsBaromVisibWave heightAir tempDewpointWater temp
2018-May-23 18:54N 40°41' W 074°04'2 4.6
2018-May-23 18:30N 40°42' W 074°02'4 4.1
2018-May-23 17:25N 40°46' W 074°00'4 9.5
2018-May-23 17:00N 40°42' W 074°02'4 7.4
2018-May-23 16:30N 40°39' W 074°03'5 7.8
2018-May-23 15:55N 40°34' W 074°02'0 0.6
2018-May-23 15:13N 40°34' W 074°02'1 2.0
2018-May-23 14:56N 40°33' W 074°02'3 5.9
2018-May-23 14:29N 40°36' W 074°03'510.8
2018-May-23 13:59N 40°41' W 074°04'0 0.0
2018-May-23 13:29N 40°41' W 074°04'0 0.0
2018-May-23 12:59N 40°41' W 074°04'0 0.0
2018-May-23 12:26N 40°41' W 074°04'0 0.0
2018-May-23 11:59N 40°41' W 074°04'0 0.0
2018-May-23 11:29N 40°41' W 074°04'0 0.0
2018-May-23 10:59N 40°41' W 074°04'0 0.0
2018-May-23 10:29N 40°41' W 074°04'0 0.0
2018-May-23 09:59N 40°41' W 074°04'0 0.0
2018-May-23 09:29N 40°41' W 074°04'0 0.0
2018-May-23 08:59N 40°41' W 074°04'0 0.0
2018-May-23 08:29N 40°41' W 074°04'0 0.0
2018-May-23 07:59N 40°41' W 074°04'0 0.0
2018-May-23 07:20N 40°41' W 074°04'0 0.0
2018-May-23 06:59N 40°41' W 074°04'0 0.0
2018-May-23 06:29N 40°41' W 074°04'0 0.0
2018-May-23 05:59N 40°41' W 074°04'0 0.0
2018-May-23 05:29N 40°41' W 074°04'0 0.0
2018-May-23 04:59N 40°41' W 074°04'0 0.0
2018-May-23 04:29N 40°41' W 074°04'0 0.0
2018-May-23 03:59N 40°41' W 074°04'0 0.0
2018-May-23 03:29N 40°41' W 074°04'0 0.0
2018-May-23 02:59N 40°41' W 074°04'0 0.0
2018-May-23 02:29N 40°41' W 074°04'0 0.0
2018-May-23 01:56N 40°41' W 074°04'0 0.0
2018-May-23 01:29N 40°41' W 074°04'0 0.0
2018-May-23 00:59N 40°41' W 074°04'0 0.0
2018-May-23 00:29N 40°41' W 074°04'0 0.0
2018-May-22 23:59N 40°41' W 074°04'0 0.0
2018-May-22 23:29N 40°41' W 074°04'0 0.0
2018-May-22 22:59N 40°41' W 074°04'0 0.0
2018-May-22 22:29N 40°41' W 074°04'0 0.0
2018-May-22 21:59N 40°41' W 074°04'0 0.0
2018-May-22 21:29N 40°41' W 074°04'0 0.0
2018-May-22 20:59N 40°41' W 074°04'0 0.0
2018-May-22 20:29N 40°41' W 074°04'0 0.0
2018-May-22 19:59N 40°41' W 074°04'0 0.0
2018-May-22 19:29N 40°41' W 074°04'0 0.0
2018-May-22 18:56N 40°41' W 074°04'0 0.0
2018-May-22 18:29N 40°41' W 074°04'0 0.0
2018-May-22 17:59N 40°41' W 074°04'0 0.0
2018-May-22 17:29N 40°41' W 074°04'0 0.0
2018-May-22 16:59N 40°41' W 074°04'0 0.0
2018-May-22 16:29N 40°41' W 074°04'0 0.0
2018-May-22 15:56N 40°41' W 074°04'0 0.0
2018-May-22 15:29N 40°41' W 074°04'0 0.0
2018-May-22 14:56N 40°41' W 074°04'0 0.0
2018-May-22 14:29N 40°41' W 074°04'0 0.0
2018-May-22 13:59N 40°41' W 074°04'0 0.0
2018-May-22 13:29N 40°41' W 074°04'0 0.0
2018-May-22 12:59N 40°41' W 074°04'0 0.0
2018-May-22 12:29N 40°41' W 074°04'0 0.0
2018-May-22 11:59N 40°41' W 074°04'0 0.0
2018-May-22 11:29N 40°41' W 074°04'0 0.0
2018-May-22 10:59N 40°41' W 074°04'0 0.0
2018-May-22 10:29N 40°41' W 074°04'0 0.0
2018-May-22 09:59N 40°41' W 074°04'0 0.0
2018-May-22 09:29N 40°41' W 074°04'0 0.0
2018-May-22 08:59N 40°41' W 074°04'0 0.0
2018-May-22 08:29N 40°41' W 074°04'0 0.0
2018-May-22 07:59N 40°41' W 074°04'0 0.0
2018-May-22 07:26N 40°41' W 074°04'0 0.0
2018-May-22 06:59N 40°41' W 074°04'0 0.0
2018-May-22 06:29N 40°41' W 074°04'0 0.0
2018-May-22 05:59N 40°41' W 074°04'0 0.0
2018-May-22 05:29N 40°41' W 074°04'0 0.0
2018-May-22 04:59N 40°41' W 074°04'0 0.0
2018-May-22 04:29N 40°41' W 074°04'0 0.0
2018-May-22 03:59N 40°41' W 074°04'0 0.0
2018-May-22 03:29N 40°41' W 074°04'0 0.0
2018-May-22 02:59N 40°41' W 074°04'0 0.0
2018-May-22 02:29N 40°41' W 074°04'0 0.0
2018-May-22 01:59N 40°41' W 074°04'0 0.0
2018-May-22 01:29N 40°41' W 074°04'0 0.0
2018-May-22 00:56N 40°41' W 074°04'0 0.0
2018-May-22 00:29N 40°41' W 074°04'0 0.0
2018-May-21 23:59N 40°41' W 074°04'0 0.0
2018-May-21 23:29N 40°41' W 074°04'0 0.0
2018-May-21 22:56N 40°41' W 074°04'0 0.0
2018-May-21 22:26N 40°41' W 074°04'0 0.0
2018-May-21 21:59N 40°41' W 074°04'0 0.0
2018-May-21 21:29N 40°41' W 074°04'0 0.0
2018-May-21 20:59N 40°41' W 074°04'0 0.0
2018-May-21 20:29N 40°41' W 074°04'0 0.0
2018-May-21 19:59N 40°41' W 074°04'0 0.0
2018-May-21 19:29N 40°41' W 074°04'0 0.0
2018-May-21 18:56N 40°41' W 074°04'0 0.0
2018-May-21 18:29N 40°41' W 074°04'0 0.0
2018-May-21 17:59N 40°41' W 074°04'0 0.0
2018-May-21 17:29N 40°41' W 074°04'0 0.0
2018-May-21 16:56N 40°41' W 074°04'0 0.0
2018-May-21 16:29N 40°41' W 074°04'0 0.0
2018-May-21 15:59N 40°41' W 074°04'0 0.0
2018-May-21 15:29N 40°41' W 074°04'0 0.0
2018-May-21 14:59N 40°41' W 074°04'0 0.0
2018-May-21 14:29N 40°41' W 074°04'0 0.0
2018-May-21 13:59N 40°41' W 074°04'0 0.0
2018-May-21 13:26N 40°41' W 074°04'0 0.0
2018-May-21 12:55N 40°41' W 074°04'0 0.0
2018-May-21 12:31N 40°41' W 074°04'0 0.0
2018-May-21 12:01N 40°41' W 074°04'0 0.0
2018-May-21 11:28N 40°41' W 074°04'0 0.0
2018-May-21 11:01N 40°41' W 074°04'0 0.0
2018-May-21 10:31N 40°41' W 074°04'0 0.0
2018-May-21 10:01N 40°41' W 074°04'0 0.0
2018-May-21 09:31N 40°41' W 074°04'0 0.0
2018-May-21 09:01N 40°41' W 074°04'0 0.0
2018-May-21 08:31N 40°41' W 074°04'0 0.0
2018-May-21 08:01N 40°41' W 074°04'0 0.0
2018-May-21 07:31N 40°41' W 074°04'0 0.0
2018-May-21 07:01N 40°41' W 074°04'0 0.0
2018-May-21 06:31N 40°41' W 074°04'0 0.0
2018-May-21 06:01N 40°41' W 074°04'0 0.0
2018-May-21 05:31N 40°41' W 074°04'0 0.0
2018-May-21 04:58N 40°41' W 074°04'0 0.0
2018-May-21 04:31N 40°41' W 074°04'0 0.0
2018-May-21 04:01N 40°41' W 074°04'0 0.0
2018-May-21 03:31N 40°41' W 074°04'0 0.0
2018-May-21 03:01N 40°41' W 074°04'0 0.0
2018-May-21 02:31N 40°41' W 074°04'0 0.0
2018-May-21 02:01N 40°41' W 074°04'0 0.0
2018-May-21 01:28N 40°41' W 074°04'0 0.0
2018-May-21 00:58N 40°41' W 074°04'0 0.0
2018-May-21 00:31N 40°41' W 074°04'0 0.0
2018-May-21 00:01N 40°41' W 074°04'0 0.0
2018-May-20 23:31N 40°41' W 074°04'0 0.0
2018-May-20 23:01N 40°41' W 074°04'0 0.0
2018-May-20 22:31N 40°41' W 074°04'0 0.0
2018-May-20 22:01N 40°41' W 074°04'0 0.0
2018-May-20 21:31N 40°41' W 074°04'0 0.0
2018-May-20 21:01N 40°41' W 074°04'0 0.0
2018-May-20 20:31N 40°41' W 074°04'0 0.0
2018-May-20 20:01N 40°41' W 074°04'0 0.0
2018-May-20 19:31N 40°41' W 074°04'0 0.0
2018-May-20 19:01N 40°41' W 074°04'0 0.0
2018-May-20 18:31N 40°41' W 074°04'0 0.0
2018-May-20 18:01N 40°41' W 074°04'0 0.0
2018-May-20 17:28N 40°41' W 074°04'0 0.0
2018-May-20 17:01N 40°41' W 074°04'0 0.0
2018-May-20 16:31N 40°41' W 074°04'0 0.0
2018-May-20 16:01N 40°41' W 074°04'0 0.0
2018-May-20 15:31N 40°41' W 074°04'0 0.0
2018-May-20 15:01N 40°41' W 074°04'0 0.0
2018-May-20 14:28N 40°41' W 074°04'0 0.0
2018-May-20 14:01N 40°41' W 074°04'0 0.0
2018-May-20 13:31N 40°41' W 074°04'0 0.0
2018-May-20 03:43N 40°41' W 074°04'0 0.0
2018-May-20 03:28N 40°41' W 074°04'0 0.0
2018-May-20 03:01N 40°41' W 074°04'0 0.0
2018-May-20 02:31N 40°41' W 074°04'0 0.0
2018-May-20 01:58N 40°41' W 074°04'0 0.0
2018-May-20 01:28N 40°41' W 074°04'0 0.0
2018-May-20 01:01N 40°41' W 074°04'0 0.0
2018-May-20 00:31N 40°41' W 074°04'0 0.0
2018-May-20 00:01N 40°41' W 074°04'0 0.0
2018-May-19 23:31N 40°41' W 074°04'0 0.0
2018-May-19 23:01N 40°41' W 074°04'0 0.0
2018-May-19 22:31N 40°41' W 074°04'0 0.0
2018-May-19 22:01N 40°41' W 074°04'0 0.0
2018-May-19 21:31N 40°41' W 074°04'0 0.0
2018-May-19 21:01N 40°41' W 074°04'0 0.0
2018-May-19 20:31N 40°41' W 074°04'0 0.0
2018-May-19 20:01N 40°41' W 074°04'0 0.0
2018-May-19 19:31N 40°41' W 074°04'0 0.0
2018-May-19 19:01N 40°41' W 074°04'0 0.0
2018-May-19 18:31N 40°41' W 074°04'0 0.0
2018-May-19 17:58N 40°41' W 074°04'0 0.0
2018-May-19 17:28N 40°41' W 074°04'0 0.0
2018-May-19 16:58N 40°41' W 074°04'0 0.0
2018-May-19 16:31N 40°41' W 074°04'0 0.0
2018-May-19 16:01N 40°41' W 074°04'0 0.0
2018-May-19 15:31N 40°41' W 074°04'0 0.0
2018-May-19 15:01N 40°41' W 074°04'0 0.0
2018-May-19 14:31N 40°41' W 074°04'0 0.0
2018-May-19 14:01N 40°41' W 074°04'0 0.0
2018-May-19 13:31N 40°41' W 074°04'0 0.0
2018-May-19 13:01N 40°41' W 074°04'0 0.0
2018-May-19 12:31N 40°41' W 074°04'0 0.0
2018-May-19 12:01N 40°41' W 074°04'0 0.0
2018-May-19 11:31N 40°41' W 074°04'0 0.0
2018-May-19 11:01N 40°41' W 074°04'0 0.0
2018-May-19 10:31N 40°41' W 074°04'0 0.0
2018-May-19 10:01N 40°41' W 074°04'0 0.0
2018-May-19 09:31N 40°41' W 074°04'0 0.0
2018-May-19 09:01N 40°41' W 074°04'0 0.0
2018-May-19 08:31N 40°41' W 074°04'0 0.0
2018-May-19 08:01N 40°41' W 074°04'0 0.0
2018-May-19 07:31N 40°41' W 074°04'0 0.0
2018-May-19 07:01N 40°41' W 074°04'0 0.0
2018-May-19 06:31N 40°41' W 074°04'0 0.0
2018-May-19 06:01N 40°41' W 074°04'0 0.0
2018-May-19 05:31N 40°41' W 074°04'0 0.0
2018-May-19 04:58N 40°41' W 074°04'0 0.0
2018-May-19 04:28N 40°41' W 074°04'0 0.0
2018-May-19 03:58N 40°41' W 074°04'0 0.0
2018-May-19 03:31N 40°41' W 074°04'0 0.0
2018-May-19 03:01N 40°41' W 074°04'0 0.0
2018-May-19 02:31N 40°41' W 074°04'0 0.0
2018-May-19 02:01N 40°41' W 074°04'0 0.0
2018-May-19 01:31N 40°41' W 074°04'0 0.0
2018-May-19 00:55N 40°41' W 074°04'0 0.0
2018-May-19 00:28N 40°41' W 074°04'0 0.0
2018-May-19 00:01N 40°41' W 074°04'0 0.0
2018-May-18 23:31N 40°41' W 074°04'0 0.0
2018-May-18 23:01N 40°41' W 074°04'0 0.0
2018-May-18 22:28N 40°41' W 074°04'0 0.0
2018-May-18 21:58N 40°41' W 074°04'0 0.0
2018-May-18 21:31N 40°41' W 074°04'0 0.0
2018-May-18 21:01N 40°41' W 074°04'0 0.0
2018-May-18 20:31N 40°41' W 074°04'0 0.0
2018-May-18 20:01N 40°41' W 074°04'0 0.0
2018-May-18 19:31N 40°41' W 074°04'0 0.0
2018-May-18 19:01N 40°41' W 074°04'0 0.0
2018-May-18 18:31N 40°41' W 074°04'0 0.0
2018-May-18 18:01N 40°41' W 074°04'0 0.0
2018-May-18 17:25N 40°41' W 074°04'0 0.0
2018-May-18 16:58N 40°41' W 074°04'0 0.0
2018-May-18 16:31N 40°41' W 074°04'0 0.0
2018-May-18 16:01N 40°41' W 074°04'0 0.0
2018-May-18 15:31N 40°41' W 074°04'0 0.0
2018-May-18 15:01N 40°41' W 074°04'0 0.0
2018-May-18 14:31N 40°41' W 074°04'0 0.0
2018-May-18 14:01N 40°41' W 074°04'0 0.0
2018-May-18 13:31N 40°41' W 074°04'0 0.0
2018-May-18 12:49N 40°41' W 074°04'0 0.0
2018-May-18 12:31N 40°41' W 074°04'0 0.0
2018-May-18 12:01N 40°41' W 074°04'0 0.0
2018-May-18 11:31N 40°41' W 074°04'0 0.0
2018-May-18 11:01N 40°41' W 074°04'0 0.0
2018-May-18 10:31N 40°41' W 074°04'0 0.0
2018-May-18 10:01N 40°41' W 074°04'0 0.0
2018-May-18 09:31N 40°41' W 074°04'0 0.0
2018-May-18 08:58N 40°41' W 074°04'0 0.0
2018-May-18 08:31N 40°41' W 074°04'0 0.0
2018-May-18 08:01N 40°41' W 074°04'0 0.0
2018-May-18 07:31N 40°41' W 074°04'0 0.0
2018-May-18 07:01N 40°41' W 074°04'0 0.0
2018-May-18 06:31N 40°41' W 074°04'0 0.0
2018-May-18 06:01N 40°41' W 074°04'0 0.0
2018-May-18 05:31N 40°41' W 074°04'0 0.0
2018-May-18 05:01N 40°41' W 074°04'0 0.0
2018-May-18 04:31N 40°41' W 074°04'0 0.0
2018-May-18 03:58N 40°41' W 074°04'0 0.0
2018-May-18 03:28N 40°41' W 074°04'0 0.0
2018-May-18 03:01N 40°41' W 074°04'0 0.0
2018-May-18 02:31N 40°41' W 074°04'0 0.0
2018-May-18 02:01N 40°41' W 074°04'0 0.0
2018-May-18 01:31N 40°41' W 074°04'0 0.0
2018-May-18 00:55N 40°41' W 074°04'0 0.0
2018-May-18 00:28N 40°41' W 074°04'0 0.0
2018-May-18 00:01N 40°41' W 074°04'0 0.0
2018-May-17 23:31N 40°41' W 074°04'0 0.0
2018-May-17 22:58N 40°41' W 074°04'0 0.0
2018-May-17 22:31N 40°41' W 074°04'0 0.0
2018-May-17 21:58N 40°41' W 074°04'0 0.0
2018-May-17 21:31N 40°41' W 074°04'0 0.0
2018-May-17 20:22N 40°41' W 074°04'0 0.0
2018-May-17 20:01N 40°41' W 074°04'0 0.0
2018-May-17 19:31N 40°41' W 074°04'0 0.0
2018-May-17 19:01N 40°41' W 074°04'0 0.0
2018-May-17 18:25N 40°41' W 074°04'0 0.0
2018-May-17 18:01N 40°41' W 074°04'0 0.0
2018-May-17 17:28N 40°41' W 074°04'0 0.0
2018-May-17 17:01N 40°41' W 074°04'0 0.0
2018-May-17 16:31N 40°41' W 074°04'0 0.0
2018-May-17 15:52N 40°41' W 074°04'0 0.0
2018-May-17 15:31N 40°41' W 074°04'0 0.0
2018-May-17 14:58N 40°41' W 074°04'0 0.0
2018-May-17 14:28N 40°41' W 074°04'0 0.0
2018-May-17 13:49N 40°41' W 074°04'0 0.0
2018-May-17 13:31N 40°41' W 074°04'0 0.0
2018-May-17 12:58N 40°41' W 074°04'0 0.0
2018-May-17 12:28N 40°41' W 074°04'0 0.0
2018-May-17 12:00N 40°41' W 074°04'0 0.0
2018-May-17 11:30N 40°41' W 074°04'0 0.0
2018-May-17 11:00N 40°41' W 074°04'0 0.0
2018-May-17 10:27N 40°41' W 074°04'0 0.0
2018-May-17 09:51N 40°41' W 074°04'0 0.0
2018-May-17 09:27N 40°41' W 074°04'0 0.0
2018-May-17 08:57N 40°41' W 074°04'0 0.0
2018-May-17 08:24N 40°41' W 074°04'0 0.0
2018-May-17 07:57N 40°41' W 074°04'0 0.0
2018-May-17 07:30N 40°41' W 074°04'0 0.0
2018-May-17 06:51N 40°41' W 074°04'0 0.0
2018-May-17 05:21N 40°41' W 074°04'0 0.0
2018-May-17 04:57N 40°41' W 074°04'0 0.0
2018-May-17 04:30N 40°41' W 074°04'0 0.0
2018-May-17 04:00N 40°41' W 074°04'0 0.0
2018-May-17 03:30N 40°41' W 074°04'0 0.0
2018-May-17 03:00N 40°41' W 074°04'0 0.0
2018-May-17 02:27N 40°41' W 074°04'0 0.0
2018-May-17 01:00N 40°41' W 074°04'0 0.0
2018-May-17 00:30N 40°41' W 074°04'0 0.0
2018-May-17 00:00N 40°41' W 074°04'0 0.0
2018-May-16 23:30N 40°41' W 074°04'0 0.0
2018-May-16 23:00N 40°41' W 074°04'0 0.0
2018-May-16 22:27N 40°41' W 074°04'0 0.0
2018-May-16 22:00N 40°41' W 074°04'0 0.0
2018-May-16 21:30N 40°41' W 074°04'0 0.0
2018-May-16 21:00N 40°41' W 074°04'0 0.0
2018-May-16 20:30N 40°41' W 074°04'0 0.0
2018-May-16 20:00N 40°41' W 074°04'0 0.0
2018-May-16 19:30N 40°41' W 074°04'0 0.0
2018-May-16 19:00N 40°41' W 074°04'  
Track history (hours):
 
Tides and Currents Weather Stations Pressure Air Temp Water Temp Dewpoint Dewpoint Depression Visibility Wind Speed Wind Dir Waves Ship Positions

Hayward

Last reported at 2018-May-23 18:54 UTC. Time now 2018-May-23 22:17 UTC.
Position N 40°41' W 074°04'.

Length 37 m; draft 2.7 m.

Type: Cargo ship. MMSI: 366999412.

Date/timePositionNaut miles runAvg speedWind from/ knotsBaromVisibWave heightAir tempDewpointWater temp
2018-May-23 18:54N 40°41' W 074°04'2 4.6
2018-May-23 18:30N 40°42' W 074°02'4 4.1
2018-May-23 17:25N 40°46' W 074°00'4 9.5
2018-May-23 17:00N 40°42' W 074°02'4 7.4
2018-May-23 16:30N 40°39' W 074°03'5 7.8
2018-May-23 15:55N 40°34' W 074°02'0 0.6
2018-May-23 15:13N 40°34' W 074°02'1 2.0
2018-May-23 14:56N 40°33' W 074°02'3 5.9
2018-May-23 14:29N 40°36' W 074°03'510.8
2018-May-23 13:59N 40°41' W 074°04'0 0.0
2018-May-23 13:29N 40°41' W 074°04'0 0.0
2018-May-23 12:59N 40°41' W 074°04'0 0.0
2018-May-23 12:26N 40°41' W 074°04'0 0.0
2018-May-23 11:59N 40°41' W 074°04'0 0.0
2018-May-23 11:29N 40°41' W 074°04'0 0.0
2018-May-23 10:59N 40°41' W 074°04'0 0.0
2018-May-23 10:29N 40°41' W 074°04'0 0.0
2018-May-23 09:59N 40°41' W 074°04'0 0.0
2018-May-23 09:29N 40°41' W 074°04'0 0.0
2018-May-23 08:59N 40°41' W 074°04'0 0.0
2018-May-23 08:29N 40°41' W 074°04'0 0.0
2018-May-23 07:59N 40°41' W 074°04'0 0.0
2018-May-23 07:20N 40°41' W 074°04'0 0.0
2018-May-23 06:59N 40°41' W 074°04'0 0.0
2018-May-23 06:29N 40°41' W 074°04'0 0.0
2018-May-23 05:59N 40°41' W 074°04'0 0.0
2018-May-23 05:29N 40°41' W 074°04'0 0.0
2018-May-23 04:59N 40°41' W 074°04'0 0.0
2018-May-23 04:29N 40°41' W 074°04'0 0.0
2018-May-23 03:59N 40°41' W 074°04'0 0.0
2018-May-23 03:29N 40°41' W 074°04'0 0.0
2018-May-23 02:59N 40°41' W 074°04'0 0.0
2018-May-23 02:29N 40°41' W 074°04'0 0.0
2018-May-23 01:56N 40°41' W 074°04'0 0.0
2018-May-23 01:29N 40°41' W 074°04'0 0.0
2018-May-23 00:59N 40°41' W 074°04'0 0.0
2018-May-23 00:29N 40°41' W 074°04'0 0.0
2018-May-22 23:59N 40°41' W 074°04'0 0.0
2018-May-22 23:29N 40°41' W 074°04'0 0.0
2018-May-22 22:59N 40°41' W 074°04'0 0.0
2018-May-22 22:29N 40°41' W 074°04'0 0.0
2018-May-22 21:59N 40°41' W 074°04'0 0.0
2018-May-22 21:29N 40°41' W 074°04'0 0.0
2018-May-22 20:59N 40°41' W 074°04'0 0.0
2018-May-22 20:29N 40°41' W 074°04'0 0.0
2018-May-22 19:59N 40°41' W 074°04'0 0.0
2018-May-22 19:29N 40°41' W 074°04'0 0.0
2018-May-22 18:56N 40°41' W 074°04'0 0.0
2018-May-22 18:29N 40°41' W 074°04'0 0.0
2018-May-22 17:59N 40°41' W 074°04'0 0.0
2018-May-22 17:29N 40°41' W 074°04'0 0.0
2018-May-22 16:59N 40°41' W 074°04'0 0.0
2018-May-22 16:29N 40°41' W 074°04'0 0.0
2018-May-22 15:56N 40°41' W 074°04'0 0.0
2018-May-22 15:29N 40°41' W 074°04'0 0.0
2018-May-22 14:56N 40°41' W 074°04'0 0.0
2018-May-22 14:29N 40°41' W 074°04'0 0.0
2018-May-22 13:59N 40°41' W 074°04'0 0.0
2018-May-22 13:29N 40°41' W 074°04'0 0.0
2018-May-22 12:59N 40°41' W 074°04'0 0.0
2018-May-22 12:29N 40°41' W 074°04'0 0.0
2018-May-22 11:59N 40°41' W 074°04'0 0.0
2018-May-22 11:29N 40°41' W 074°04'0 0.0
2018-May-22 10:59N 40°41' W 074°04'0 0.0
2018-May-22 10:29N 40°41' W 074°04'0 0.0
2018-May-22 09:59N 40°41' W 074°04'0 0.0
2018-May-22 09:29N 40°41' W 074°04'0 0.0
2018-May-22 08:59N 40°41' W 074°04'0 0.0
2018-May-22 08:29N 40°41' W 074°04'0 0.0
2018-May-22 07:59N 40°41' W 074°04'0 0.0
2018-May-22 07:26N 40°41' W 074°04'0 0.0
2018-May-22 06:59N 40°41' W 074°04'0 0.0
2018-May-22 06:29N 40°41' W 074°04'0 0.0
2018-May-22 05:59N 40°41' W 074°04'0 0.0
2018-May-22 05:29N 40°41' W 074°04'0 0.0
2018-May-22 04:59N 40°41' W 074°04'0 0.0
2018-May-22 04:29N 40°41' W 074°04'0 0.0
2018-May-22 03:59N 40°41' W 074°04'0 0.0
2018-May-22 03:29N 40°41' W 074°04'0 0.0
2018-May-22 02:59N 40°41' W 074°04'0 0.0
2018-May-22 02:29N 40°41' W 074°04'0 0.0
2018-May-22 01:59N 40°41' W 074°04'0 0.0
2018-May-22 01:29N 40°41' W 074°04'0 0.0
2018-May-22 00:56N 40°41' W 074°04'0 0.0
2018-May-22 00:29N 40°41' W 074°04'0 0.0
2018-May-21 23:59N 40°41' W 074°04'0 0.0
2018-May-21 23:29N 40°41' W 074°04'0 0.0
2018-May-21 22:56N 40°41' W 074°04'0 0.0
2018-May-21 22:26N 40°41' W 074°04'0 0.0
2018-May-21 21:59N 40°41' W 074°04'0 0.0
2018-May-21 21:29N 40°41' W 074°04'0 0.0
2018-May-21 20:59N 40°41' W 074°04'0 0.0
2018-May-21 20:29N 40°41' W 074°04'0 0.0
2018-May-21 19:59N 40°41' W 074°04'0 0.0
2018-May-21 19:29N 40°41' W 074°04'0 0.0
2018-May-21 18:56N 40°41' W 074°04'0 0.0
2018-May-21 18:29N 40°41' W 074°04'0 0.0
2018-May-21 17:59N 40°41' W 074°04'0 0.0
2018-May-21 17:29N 40°41' W 074°04'0 0.0
2018-May-21 16:56N 40°41' W 074°04'0 0.0
2018-May-21 16:29N 40°41' W 074°04'0 0.0
2018-May-21 15:59N 40°41' W 074°04'0 0.0
2018-May-21 15:29N 40°41' W 074°04'0 0.0
2018-May-21 14:59N 40°41' W 074°04'0 0.0
2018-May-21 14:29N 40°41' W 074°04'0 0.0
2018-May-21 13:59N 40°41' W 074°04'0 0.0
2018-May-21 13:26N 40°41' W 074°04'0 0.0
2018-May-21 12:55N 40°41' W 074°04'0 0.0
2018-May-21 12:31N 40°41' W 074°04'0 0.0
2018-May-21 12:01N 40°41' W 074°04'0 0.0
2018-May-21 11:28N 40°41' W 074°04'0 0.0
2018-May-21 11:01N 40°41' W 074°04'0 0.0
2018-May-21 10:31N 40°41' W 074°04'0 0.0
2018-May-21 10:01N 40°41' W 074°04'0 0.0
2018-May-21 09:31N 40°41' W 074°04'0 0.0
2018-May-21 09:01N 40°41' W 074°04'0 0.0
2018-May-21 08:31N 40°41' W 074°04'0 0.0
2018-May-21 08:01N 40°41' W 074°04'0 0.0
2018-May-21 07:31N 40°41' W 074°04'0 0.0
2018-May-21 07:01N 40°41' W 074°04'0 0.0
2018-May-21 06:31N 40°41' W 074°04'0 0.0
2018-May-21 06:01N 40°41' W 074°04'0 0.0
2018-May-21 05:31N 40°41' W 074°04'0 0.0
2018-May-21 04:58N 40°41' W 074°04'0 0.0
2018-May-21 04:31N 40°41' W 074°04'0 0.0
2018-May-21 04:01N 40°41' W 074°04'0 0.0
2018-May-21 03:31N 40°41' W 074°04'0 0.0
2018-May-21 03:01N 40°41' W 074°04'0 0.0
2018-May-21 02:31N 40°41' W 074°04'0 0.0
2018-May-21 02:01N 40°41' W 074°04'0 0.0
2018-May-21 01:28N 40°41' W 074°04'0 0.0
2018-May-21 00:58N 40°41' W 074°04'0 0.0
2018-May-21 00:31N 40°41' W 074°04'0 0.0
2018-May-21 00:01N 40°41' W 074°04'0 0.0
2018-May-20 23:31N 40°41' W 074°04'0 0.0
2018-May-20 23:01N 40°41' W 074°04'0 0.0
2018-May-20 22:31N 40°41' W 074°04'0 0.0
2018-May-20 22:01N 40°41' W 074°04'0 0.0
2018-May-20 21:31N 40°41' W 074°04'0 0.0
2018-May-20 21:01N 40°41' W 074°04'0 0.0
2018-May-20 20:31N 40°41' W 074°04'0 0.0
2018-May-20 20:01N 40°41' W 074°04'0 0.0
2018-May-20 19:31N 40°41' W 074°04'0 0.0
2018-May-20 19:01N 40°41' W 074°04'0 0.0
2018-May-20 18:31N 40°41' W 074°04'0 0.0
2018-May-20 18:01N 40°41' W 074°04'0 0.0
2018-May-20 17:28N 40°41' W 074°04'0 0.0
2018-May-20 17:01N 40°41' W 074°04'0 0.0
2018-May-20 16:31N 40°41' W 074°04'0 0.0
2018-May-20 16:01N 40°41' W 074°04'0 0.0
2018-May-20 15:31N 40°41' W 074°04'0 0.0
2018-May-20 15:01N 40°41' W 074°04'0 0.0
2018-May-20 14:28N 40°41' W 074°04'0 0.0
2018-May-20 14:01N 40°41' W 074°04'0 0.0
2018-May-20 13:31N 40°41' W 074°04'0 0.0
2018-May-20 03:43N 40°41' W 074°04'0 0.0
2018-May-20 03:28N 40°41' W 074°04'0 0.0
2018-May-20 03:01N 40°41' W 074°04'0 0.0
2018-May-20 02:31N 40°41' W 074°04'0 0.0
2018-May-20 01:58N 40°41' W 074°04'0 0.0
2018-May-20 01:28N 40°41' W 074°04'0 0.0
2018-May-20 01:01N 40°41' W 074°04'0 0.0
2018-May-20 00:31N 40°41' W 074°04'0 0.0
2018-May-20 00:01N 40°41' W 074°04'0 0.0
2018-May-19 23:31N 40°41' W 074°04'0 0.0
2018-May-19 23:01N 40°41' W 074°04'0 0.0
2018-May-19 22:31N 40°41' W 074°04'0 0.0
2018-May-19 22:01N 40°41' W 074°04'0 0.0
2018-May-19 21:31N 40°41' W 074°04'0 0.0
2018-May-19 21:01N 40°41' W 074°04'0 0.0
2018-May-19 20:31N 40°41' W 074°04'0 0.0
2018-May-19 20:01N 40°41' W 074°04'0 0.0
2018-May-19 19:31N 40°41' W 074°04'0 0.0
2018-May-19 19:01N 40°41' W 074°04'0 0.0
2018-May-19 18:31N 40°41' W 074°04'0 0.0
2018-May-19 17:58N 40°41' W 074°04'0 0.0
2018-May-19 17:28N 40°41' W 074°04'0 0.0
2018-May-19 16:58N 40°41' W 074°04'0 0.0
2018-May-19 16:31N 40°41' W 074°04'0 0.0
2018-May-19 16:01N 40°41' W 074°04'0 0.0
2018-May-19 15:31N 40°41' W 074°04'0 0.0
2018-May-19 15:01N 40°41' W 074°04'0 0.0
2018-May-19 14:31N 40°41' W 074°04'0 0.0
2018-May-19 14:01N 40°41' W 074°04'0 0.0
2018-May-19 13:31N 40°41' W 074°04'0 0.0
2018-May-19 13:01N 40°41' W 074°04'0 0.0
2018-May-19 12:31N 40°41' W 074°04'0 0.0
2018-May-19 12:01N 40°41' W 074°04'0 0.0
2018-May-19 11:31N 40°41' W 074°04'0 0.0
2018-May-19 11:01N 40°41' W 074°04'0 0.0
2018-May-19 10:31N 40°41' W 074°04'0 0.0
2018-May-19 10:01N 40°41' W 074°04'0 0.0
2018-May-19 09:31N 40°41' W 074°04'0 0.0
2018-May-19 09:01N 40°41' W 074°04'0 0.0
2018-May-19 08:31N 40°41' W 074°04'0 0.0
2018-May-19 08:01N 40°41' W 074°04'0 0.0
2018-May-19 07:31N 40°41' W 074°04'0 0.0
2018-May-19 07:01N 40°41' W 074°04'0 0.0
2018-May-19 06:31N 40°41' W 074°04'0 0.0
2018-May-19 06:01N 40°41' W 074°04'0 0.0
2018-May-19 05:31N 40°41' W 074°04'0 0.0
2018-May-19 04:58N 40°41' W 074°04'0 0.0
2018-May-19 04:28N 40°41' W 074°04'0 0.0
2018-May-19 03:58N 40°41' W 074°04'0 0.0
2018-May-19 03:31N 40°41' W 074°04'0 0.0
2018-May-19 03:01N 40°41' W 074°04'0 0.0
2018-May-19 02:31N 40°41' W 074°04'0 0.0
2018-May-19 02:01N 40°41' W 074°04'0 0.0
2018-May-19 01:31N 40°41' W 074°04'0 0.0
2018-May-19 00:55N 40°41' W 074°04'0 0.0
2018-May-19 00:28N 40°41' W 074°04'0 0.0
2018-May-19 00:01N 40°41' W 074°04'0 0.0
2018-May-18 23:31N 40°41' W 074°04'0 0.0
2018-May-18 23:01N 40°41' W 074°04'0 0.0
2018-May-18 22:28N 40°41' W 074°04'0 0.0
2018-May-18 21:58N 40°41' W 074°04'0 0.0
2018-May-18 21:31N 40°41' W 074°04'0 0.0
2018-May-18 21:01N 40°41' W 074°04'0 0.0
2018-May-18 20:31N 40°41' W 074°04'0 0.0
2018-May-18 20:01N 40°41' W 074°04'0 0.0
2018-May-18 19:31N 40°41' W 074°04'0 0.0
2018-May-18 19:01N 40°41' W 074°04'0 0.0
2018-May-18 18:31N 40°41' W 074°04'0 0.0
2018-May-18 18:01N 40°41' W 074°04'0 0.0
2018-May-18 17:25N 40°41' W 074°04'0 0.0
2018-May-18 16:58N 40°41' W 074°04'0 0.0
2018-May-18 16:31N 40°41' W 074°04'0 0.0
2018-May-18 16:01N 40°41' W 074°04'0 0.0
2018-May-18 15:31N 40°41' W 074°04'0 0.0
2018-May-18 15:01N 40°41' W 074°04'0 0.0
2018-May-18 14:31N 40°41' W 074°04'0 0.0
2018-May-18 14:01N 40°41' W 074°04'0 0.0
2018-May-18 13:31N 40°41' W 074°04'0 0.0
2018-May-18 12:49N 40°41' W 074°04'0 0.0
2018-May-18 12:31N 40°41' W 074°04'0 0.0
2018-May-18 12:01N 40°41' W 074°04'0 0.0
2018-May-18 11:31N 40°41' W 074°04'0 0.0
2018-May-18 11:01N 40°41' W 074°04'0 0.0
2018-May-18 10:31N 40°41' W 074°04'0 0.0
2018-May-18 10:01N 40°41' W 074°04'0 0.0
2018-May-18 09:31N 40°41' W 074°04'0 0.0
2018-May-18 08:58N 40°41' W 074°04'0 0.0
2018-May-18 08:31N 40°41' W 074°04'0 0.0
2018-May-18 08:01N 40°41' W 074°04'0 0.0
2018-May-18 07:31N 40°41' W 074°04'0 0.0
2018-May-18 07:01N 40°41' W 074°04'0 0.0
2018-May-18 06:31N 40°41' W 074°04'0 0.0
2018-May-18 06:01N 40°41' W 074°04'0 0.0
2018-May-18 05:31N 40°41' W 074°04'0 0.0
2018-May-18 05:01N 40°41' W 074°04'0 0.0
2018-May-18 04:31N 40°41' W 074°04'0 0.0
2018-May-18 03:58N 40°41' W 074°04'0 0.0
2018-May-18 03:28N 40°41' W 074°04'0 0.0
2018-May-18 03:01N 40°41' W 074°04'0 0.0
2018-May-18 02:31N 40°41' W 074°04'0 0.0
2018-May-18 02:01N 40°41' W 074°04'0 0.0
2018-May-18 01:31N 40°41' W 074°04'0 0.0
2018-May-18 00:55N 40°41' W 074°04'0 0.0
2018-May-18 00:28N 40°41' W 074°04'0 0.0
2018-May-18 00:01N 40°41' W 074°04'0 0.0
2018-May-17 23:31N 40°41' W 074°04'0 0.0
2018-May-17 22:58N 40°41' W 074°04'0 0.0
2018-May-17 22:31N 40°41' W 074°04'0 0.0
2018-May-17 21:58N 40°41' W 074°04'0 0.0
2018-May-17 21:31N 40°41' W 074°04'0 0.0
2018-May-17 20:22N 40°41' W 074°04'0 0.0
2018-May-17 20:01N 40°41' W 074°04'0 0.0
2018-May-17 19:31N 40°41' W 074°04'0 0.0
2018-May-17 19:01N 40°41' W 074°04'0 0.0
2018-May-17 18:25N 40°41' W 074°04'0 0.0
2018-May-17 18:01N 40°41' W 074°04'0 0.0
2018-May-17 17:28N 40°41' W 074°04'0 0.0
2018-May-17 17:01N 40°41' W 074°04'0 0.0
2018-May-17 16:31N 40°41' W 074°04'0 0.0
2018-May-17 15:52N 40°41' W 074°04'0 0.0
2018-May-17 15:31N 40°41' W 074°04'0 0.0
2018-May-17 14:58N 40°41' W 074°04'0 0.0
2018-May-17 14:28N 40°41' W 074°04'0 0.0
2018-May-17 13:49N 40°41' W 074°04'0 0.0
2018-May-17 13:31N 40°41' W 074°04'0 0.0
2018-May-17 12:58N 40°41' W 074°04'0 0.0
2018-May-17 12:28N 40°41' W 074°04'0 0.0
2018-May-17 12:00N 40°41' W 074°04'0 0.0
2018-May-17 11:30N 40°41' W 074°04'0 0.0
2018-May-17 11:00N 40°41' W 074°04'0 0.0
2018-May-17 10:27N 40°41' W 074°04'0 0.0
2018-May-17 09:51N 40°41' W 074°04'0 0.0
2018-May-17 09:27N 40°41' W 074°04'0 0.0
2018-May-17 08:57N 40°41' W 074°04'0 0.0
2018-May-17 08:24N 40°41' W 074°04'0 0.0
2018-May-17 07:57N 40°41' W 074°04'0 0.0
2018-May-17 07:30N 40°41' W 074°04'0 0.0
2018-May-17 06:51N 40°41' W 074°04'0 0.0
2018-May-17 05:21N 40°41' W 074°04'0 0.0
2018-May-17 04:57N 40°41' W 074°04'0 0.0
2018-May-17 04:30N 40°41' W 074°04'0 0.0
2018-May-17 04:00N 40°41' W 074°04'0 0.0
2018-May-17 03:30N 40°41' W 074°04'0 0.0
2018-May-17 03:00N 40°41' W 074°04'0 0.0
2018-May-17 02:27N 40°41' W 074°04'0 0.0
2018-May-17 01:00N 40°41' W 074°04'0 0.0
2018-May-17 00:30N 40°41' W 074°04'0 0.0
2018-May-17 00:00N 40°41' W 074°04'0 0.0
2018-May-16 23:30N 40°41' W 074°04'0 0.0
2018-May-16 23:00N 40°41' W 074°04'0 0.0
2018-May-16 22:27N 40°41' W 074°04'0 0.0
2018-May-16 22:00N 40°41' W 074°04'0 0.0
2018-May-16 21:30N 40°41' W 074°04'0 0.0
2018-May-16 21:00N 40°41' W 074°04'0 0.0
2018-May-16 20:30N 40°41' W 074°04'0 0.0
2018-May-16 20:00N 40°41' W 074°04'0 0.0
2018-May-16 19:30N 40°41' W 074°04'0 0.0
2018-May-16 19:00N 40°41' W 074°04'  

Dump ship's entire track history